createdAt,value
2022-10-08T00:01:32.614Z,7.90
2022-10-08T00:04:01.096Z,8.82
2022-10-08T00:06:31.369Z,8.23
2022-10-08T00:09:02.392Z,7.95
2022-10-08T00:11:35.442Z,8.82
2022-10-08T00:14:04.653Z,8.45
2022-10-08T00:16:35.816Z,9.18
2022-10-08T00:19:08.232Z,8.40
2022-10-08T00:21:39.831Z,10.00
2022-10-08T00:24:11.855Z,9.27
2022-10-08T00:26:44.041Z,8.30
2022-10-08T00:29:17.457Z,7.80
2022-10-08T00:31:49.107Z,8.52
2022-10-08T00:34:21.143Z,7.63
2022-10-08T00:36:53.231Z,8.25
2022-10-08T00:39:23.915Z,7.75
2022-10-08T00:41:56.060Z,7.88
2022-10-08T00:44:55.564Z,7.72
2022-10-08T00:47:43.218Z,7.70
2022-10-08T00:50:17.969Z,8.07
2022-10-08T00:52:50.813Z,8.20
2022-10-08T00:55:23.721Z,8.93
2022-10-08T00:57:53.837Z,8.50
2022-10-08T01:00:25.294Z,7.68
2022-10-08T01:02:54.144Z,6.70
2022-10-08T01:05:31.511Z,6.75
2022-10-08T01:08:12.977Z,8.18
2022-10-08T01:10:52.780Z,8.90
2022-10-08T01:13:37.495Z,9.13
2022-10-08T01:16:18.428Z,8.43
2022-10-08T01:18:54.852Z,7.70
2022-10-08T01:21:37.237Z,8.10
2022-10-08T01:24:47.528Z,8.32
2022-10-08T01:27:33.468Z,8.02
2022-10-08T01:30:07.214Z,9.48
2022-10-08T01:32:41.838Z,9.57
2022-10-08T01:35:16.475Z,8.48
2022-10-08T01:37:46.368Z,8.40
2022-10-08T01:40:21.485Z,8.23
2022-10-08T01:42:54.147Z,8.18
2022-10-08T01:45:27.992Z,7.80
2022-10-08T01:47:59.961Z,8.13
2022-10-08T01:50:37.003Z,8.48
2022-10-08T01:53:11.639Z,8.40
2022-10-08T01:55:44.885Z,8.25
2022-10-08T01:58:20.033Z,9.02
2022-10-08T02:00:52.271Z,7.32
2022-10-08T02:03:20.779Z,8.27
2022-10-08T02:05:54.635Z,8.65
2022-10-08T02:08:24.619Z,8.30
2022-10-08T02:10:54.059Z,9.13
2022-10-08T02:13:24.342Z,8.07
2022-10-08T02:16:03.874Z,8.43
2022-10-08T02:18:42.102Z,8.25
2022-10-08T02:21:17.329Z,7.45
2022-10-08T02:23:54.578Z,7.45
2022-10-08T02:26:30.408Z,8.32
2022-10-08T02:29:04.774Z,7.20
2022-10-08T02:31:40.876Z,8.50
2022-10-08T02:34:15.394Z,9.13
2022-10-08T02:36:48.260Z,7.97
2022-10-08T02:39:18.838Z,8.07
2022-10-08T02:41:53.425Z,8.20
2022-10-08T02:44:28.844Z,8.38
2022-10-08T02:47:01.917Z,6.80
2022-10-08T02:49:34.921Z,7.53
2022-10-08T02:52:04.553Z,8.02
2022-10-08T02:54:39.525Z,8.85
2022-10-08T02:57:17.174Z,8.13
2022-10-08T02:59:48.513Z,7.65
2022-10-08T03:02:23.736Z,9.50
2022-10-08T03:04:58.810Z,9.02
2022-10-08T03:07:30.847Z,8.20
2022-10-08T03:10:00.509Z,8.80
2022-10-08T03:12:28.832Z,8.55
2022-10-08T03:14:58.940Z,11.55
2022-10-08T03:17:34.707Z,10.23
2022-10-08T03:20:06.103Z,10.75
2022-10-08T03:22:38.281Z,10.75
2022-10-08T03:25:07.340Z,9.80
2022-10-08T03:27:36.064Z,10.95
2022-10-08T03:30:07.451Z,11.18
2022-10-08T03:32:35.785Z,13.55
2022-10-08T03:35:04.254Z,10.75
2022-10-08T03:37:32.643Z,12.60
2022-10-08T03:40:01.039Z,11.55
2022-10-08T03:42:29.424Z,12.20
2022-10-08T03:44:57.910Z,12.65
2022-10-08T03:47:27.647Z,11.98
2022-10-08T03:49:56.156Z,12.05
2022-10-08T03:52:24.573Z,9.65
2022-10-08T03:54:52.914Z,9.80
2022-10-08T03:57:21.237Z,10.20
2022-10-08T03:59:49.638Z,9.43
2022-10-08T04:02:18.000Z,10.50
2022-10-08T04:04:47.760Z,10.85
2022-10-08T04:07:16.081Z,13.15
2022-10-08T04:09:44.425Z,10.32
2022-10-08T04:12:12.753Z,11.13
2022-10-08T04:14:41.104Z,11.35
2022-10-08T04:17:09.445Z,11.10
2022-10-08T04:19:37.780Z,12.35
2022-10-08T04:22:07.475Z,10.65
2022-10-08T04:24:35.817Z,12.00
2022-10-08T04:27:04.181Z,12.05
2022-10-08T04:29:32.517Z,10.57
2022-10-08T04:32:00.886Z,10.07
2022-10-08T04:34:29.956Z,10.55
2022-10-08T04:36:58.294Z,10.10
2022-10-08T04:39:28.085Z,10.77
2022-10-08T04:41:56.434Z,9.25
2022-10-08T04:44:24.866Z,10.82
2022-10-08T04:46:53.223Z,11.20
2022-10-08T04:49:21.608Z,10.23
2022-10-08T04:51:49.942Z,10.75
2022-10-08T04:54:18.286Z,10.35
2022-10-08T04:56:48.075Z,9.95
2022-10-08T04:59:16.441Z,11.02
2022-10-08T05:01:44.860Z,10.25
2022-10-08T05:04:13.289Z,10.18
2022-10-08T05:06:41.697Z,10.30
2022-10-08T05:09:10.794Z,10.38
2022-10-08T05:11:39.128Z,10.13
2022-10-08T05:14:10.065Z,11.40
2022-10-08T05:16:39.046Z,10.13
2022-10-08T05:19:07.400Z,10.90
2022-10-08T05:21:35.852Z,11.85
2022-10-08T05:24:06.715Z,9.35
2022-10-08T05:26:58.610Z,8.48
2022-10-08T05:29:30.186Z,8.73
2022-10-08T05:31:58.673Z,9.85
2022-10-08T05:34:27.014Z,9.70
2022-10-08T05:36:55.401Z,11.68
2022-10-08T05:39:23.762Z,9.43
2022-10-08T05:41:53.339Z,10.50
2022-10-08T05:44:21.997Z,10.13
2022-10-08T05:46:51.817Z,8.85
2022-10-08T05:49:22.359Z,8.40
2022-10-08T05:51:51.405Z,10.45
2022-10-08T05:54:20.848Z,10.30
2022-10-08T05:56:49.373Z,8.82
2022-10-08T05:59:20.986Z,10.55
2022-10-08T06:01:49.476Z,10.05
2022-10-08T06:04:20.040Z,10.18
2022-10-08T06:06:49.094Z,11.15
2022-10-08T06:09:20.070Z,10.32
2022-10-08T06:11:49.769Z,8.10
2022-10-08T06:14:19.305Z,10.85
2022-10-08T06:16:47.710Z,8.32
2022-10-08T06:19:18.145Z,9.27
2022-10-08T06:21:46.612Z,7.70
2022-10-08T06:24:15.039Z,10.13
2022-10-08T06:26:45.132Z,10.48
2022-10-08T06:29:16.637Z,9.95
2022-10-08T06:31:46.061Z,8.80
2022-10-08T06:34:14.497Z,9.13
2022-10-08T06:36:44.230Z,8.13
2022-10-08T06:39:14.664Z,9.50
2022-10-08T06:41:43.822Z,9.23
2022-10-08T06:44:14.447Z,8.63
2022-10-08T06:46:43.610Z,7.88
2022-10-08T06:49:12.865Z,8.50
2022-10-08T06:51:41.479Z,8.80
2022-10-08T06:54:11.293Z,8.75
2022-10-08T06:56:39.991Z,10.90
2022-10-08T06:59:09.129Z,9.02
2022-10-08T07:01:37.768Z,8.70
2022-10-08T07:04:07.488Z,9.48
2022-10-08T07:06:36.085Z,9.18
2022-10-08T07:09:05.319Z,8.43
2022-10-08T07:11:35.269Z,8.90
2022-10-08T07:14:03.711Z,7.05
2022-10-08T07:16:32.235Z,8.23
2022-10-08T07:19:00.845Z,8.00
2022-10-08T07:21:30.409Z,8.35
2022-10-08T07:24:02.058Z,9.00
2022-10-08T07:26:34.471Z,8.52
2022-10-08T07:29:08.314Z,7.45
2022-10-08T07:31:38.820Z,9.55
2022-10-08T07:34:09.364Z,9.25
2022-10-08T07:36:38.053Z,9.80
2022-10-08T07:39:09.055Z,8.70
2022-10-08T07:41:37.492Z,8.55
2022-10-08T07:44:08.229Z,7.93
2022-10-08T07:46:39.155Z,9.82
2022-10-08T07:49:07.567Z,9.13
2022-10-08T07:51:36.581Z,8.98
2022-10-08T07:54:07.395Z,9.05
2022-10-08T07:56:37.007Z,9.75
2022-10-08T07:59:07.917Z,10.00
2022-10-08T08:01:36.979Z,11.32
2022-10-08T08:04:07.804Z,9.02
2022-10-08T08:06:41.405Z,11.02
2022-10-08T08:09:10.296Z,11.20
2022-10-08T08:11:40.058Z,9.43
2022-10-08T08:14:10.035Z,9.13
2022-10-08T08:16:39.060Z,8.88
2022-10-08T08:19:08.268Z,8.95
2022-10-08T08:21:38.625Z,8.75
2022-10-08T08:24:09.644Z,7.97
2022-10-08T08:26:41.896Z,8.93
2022-10-08T08:29:13.954Z,9.45
2022-10-08T08:31:44.722Z,8.32
2022-10-08T08:34:15.657Z,6.35
2022-10-08T08:36:46.895Z,7.70
2022-10-08T08:39:18.395Z,7.75
2022-10-08T08:42:13.957Z,8.57
2022-10-08T08:44:45.875Z,9.38
2022-10-08T08:47:20.364Z,8.30
2022-10-08T08:49:54.470Z,7.85
2022-10-08T08:52:26.041Z,9.35
2022-10-08T08:54:55.186Z,7.47
2022-10-08T08:57:38.411Z,6.57
2022-10-08T09:00:15.178Z,8.48
2022-10-08T09:02:55.717Z,8.23
2022-10-08T09:05:26.973Z,6.50
2022-10-08T09:08:00.572Z,5.85
2022-10-08T09:10:44.040Z,5.88
2022-10-08T09:13:18.897Z,8.30
2022-10-08T09:15:48.835Z,7.13
2022-10-08T09:18:18.269Z,8.45
2022-10-08T09:20:46.928Z,8.85
2022-10-08T09:23:19.690Z,8.60
2022-10-08T09:25:54.294Z,8.05
2022-10-08T09:28:47.478Z,9.38
2022-10-08T09:31:26.393Z,8.63
2022-10-08T09:34:02.934Z,9.65
2022-10-08T09:36:42.736Z,9.55
2022-10-08T09:39:20.537Z,8.73
2022-10-08T09:42:14.161Z,10.13
2022-10-08T09:44:45.208Z,9.52
2022-10-08T09:47:18.359Z,8.75
2022-10-08T09:49:50.056Z,8.80
2022-10-08T09:52:23.332Z,8.77
2022-10-08T09:54:57.919Z,8.43
2022-10-08T09:57:26.493Z,8.82
2022-10-08T09:59:59.220Z,7.95
2022-10-08T10:02:35.121Z,8.63
2022-10-08T10:05:07.667Z,8.80
2022-10-08T10:07:43.149Z,9.52
2022-10-08T10:10:19.667Z,9.52
2022-10-08T10:12:51.715Z,8.60
2022-10-08T10:15:24.158Z,10.07
2022-10-08T10:17:57.200Z,8.93
2022-10-08T10:20:31.787Z,8.65
2022-10-08T10:23:06.549Z,10.45
2022-10-08T10:25:39.454Z,9.30
2022-10-08T10:28:14.101Z,9.25
2022-10-08T10:30:52.843Z,9.10
2022-10-08T10:33:28.157Z,9.85
2022-10-08T10:36:01.562Z,9.15
2022-10-08T10:38:32.309Z,7.93
2022-10-08T10:41:14.448Z,10.10
2022-10-08T10:43:49.928Z,8.57
2022-10-08T10:46:29.691Z,8.80
2022-10-08T10:49:00.514Z,8.60
2022-10-08T10:51:56.143Z,9.10
2022-10-08T10:54:44.021Z,7.68
2022-10-08T10:57:27.090Z,7.72
2022-10-08T11:00:07.437Z,8.70
2022-10-08T11:02:45.267Z,7.65
2022-10-08T11:05:23.415Z,8.93
2022-10-08T11:08:20.242Z,8.60
2022-10-08T11:11:10.590Z,9.30
2022-10-08T11:13:57.029Z,9.82
2022-10-08T11:16:40.904Z,10.98
2022-10-08T11:19:26.687Z,8.23
2022-10-08T11:22:06.532Z,9.68
2022-10-08T11:25:06.812Z,9.38
2022-10-08T11:27:48.656Z,8.73
2022-10-08T11:30:21.881Z,9.00
2022-10-08T11:32:55.077Z,9.52
2022-10-08T11:35:33.131Z,9.60
2022-10-08T11:38:13.234Z,8.75
2022-10-08T11:40:49.211Z,8.23
2022-10-08T11:43:28.963Z,8.93
2022-10-08T11:46:28.769Z,9.13
2022-10-08T11:49:00.677Z,9.68
2022-10-08T11:51:40.119Z,8.18
2022-10-08T11:54:25.487Z,9.68
2022-10-08T11:57:14.202Z,8.05
2022-10-08T11:59:44.726Z,10.20
2022-10-08T12:02:27.804Z,10.10
2022-10-08T12:05:00.007Z,10.15
2022-10-08T12:07:33.663Z,9.90
2022-10-08T12:10:31.706Z,9.10
2022-10-08T12:13:31.282Z,10.25
2022-10-08T12:16:06.831Z,8.93
2022-10-08T12:18:53.890Z,9.68
2022-10-08T12:21:51.317Z,9.38
2022-10-08T12:24:56.640Z,8.75
2022-10-08T12:27:39.329Z,9.02
2022-10-08T12:30:12.123Z,9.05
2022-10-08T12:32:58.057Z,9.85
2022-10-08T12:35:31.316Z,9.07
2022-10-08T12:38:27.449Z,9.00
2022-10-08T12:41:07.751Z,8.68
2022-10-08T12:43:48.600Z,10.63
2022-10-08T12:46:32.519Z,8.55
2022-10-08T12:49:06.813Z,9.52
2022-10-08T12:51:47.777Z,8.55
2022-10-08T12:54:22.552Z,7.97
2022-10-08T12:56:52.115Z,10.20
2022-10-08T12:59:25.327Z,9.98
2022-10-08T13:01:55.692Z,8.13
2022-10-08T13:04:26.193Z,9.32
2022-10-08T13:06:55.990Z,9.27
2022-10-08T13:09:30.697Z,8.68
2022-10-08T13:12:03.566Z,9.88
2022-10-08T13:14:36.158Z,9.23
2022-10-08T13:17:05.390Z,8.48
2022-10-08T13:19:35.922Z,10.38
2022-10-08T13:22:08.717Z,9.10
2022-10-08T13:24:43.230Z,10.55
2022-10-08T13:27:27.079Z,8.23
2022-10-08T13:29:58.267Z,10.02
2022-10-08T13:32:29.977Z,8.95
2022-10-08T13:35:00.725Z,9.07
2022-10-08T13:37:33.525Z,9.73
2022-10-08T13:40:04.774Z,9.07
2022-10-08T13:42:37.506Z,10.02
2022-10-08T13:45:18.201Z,8.05
2022-10-08T13:47:47.256Z,8.18
2022-10-08T13:50:16.316Z,6.38
2022-10-08T13:52:48.260Z,6.75
2022-10-08T13:55:27.169Z,5.63
2022-10-08T13:57:56.614Z,7.65
2022-10-08T14:00:26.596Z,9.50
2022-10-08T14:02:55.141Z,9.35
2022-10-08T14:05:24.939Z,6.53
2022-10-08T14:07:56.985Z,9.65
2022-10-08T14:10:25.492Z,6.43
2022-10-08T14:12:53.864Z,5.70
2022-10-08T14:15:22.512Z,3.75
2022-10-08T14:17:53.442Z,3.45
2022-10-08T14:20:22.179Z,3.13
2022-10-08T14:22:51.487Z,3.53
2022-10-08T14:25:22.738Z,3.47
2022-10-08T14:27:51.651Z,4.53
2022-10-08T14:30:20.563Z,3.47
2022-10-08T14:32:48.980Z,3.60
2022-10-08T14:35:18.942Z,2.97
2022-10-08T14:37:47.512Z,2.83
2022-10-08T14:40:21.036Z,2.85
2022-10-08T14:42:50.181Z,3.58
2022-10-08T14:45:19.290Z,3.00
2022-10-08T14:47:47.682Z,3.17
2022-10-08T14:50:16.153Z,2.67
2022-10-08T14:52:46.272Z,3.00
2022-10-08T14:55:15.299Z,2.90
2022-10-08T14:57:43.797Z,5.13
2022-10-08T15:00:14.257Z,5.70
2022-10-08T15:02:42.634Z,4.90
2022-10-08T15:05:11.369Z,6.15
2022-10-08T15:07:39.752Z,7.70
2022-10-08T15:10:10.696Z,6.15
2022-10-08T15:12:39.063Z,7.80
2022-10-08T15:15:09.514Z,10.25
2022-10-08T15:17:37.918Z,8.18
2022-10-08T15:20:07.694Z,10.00
2022-10-08T15:22:36.130Z,7.72
2022-10-08T15:25:05.197Z,7.40
2022-10-08T15:27:34.955Z,6.70
2022-10-08T15:30:03.340Z,6.97
2022-10-08T15:32:31.722Z,5.28
2022-10-08T15:35:00.174Z,5.28
2022-10-08T15:37:28.586Z,6.95
2022-10-08T15:39:56.983Z,6.57
2022-10-08T15:42:25.359Z,6.72
2022-10-08T15:44:55.321Z,8.77
2022-10-08T15:47:23.757Z,7.80
2022-10-08T15:49:52.400Z,9.23
2022-10-08T15:52:22.499Z,8.15
2022-10-08T15:54:50.954Z,8.75
2022-10-08T15:57:19.737Z,8.02
2022-10-08T15:59:48.168Z,8.43
2022-10-08T16:02:18.763Z,8.15
2022-10-08T16:04:48.243Z,7.70
2022-10-08T16:07:16.844Z,7.43
2022-10-08T16:09:45.357Z,10.48
2022-10-08T16:12:13.952Z,9.00
2022-10-08T16:14:42.385Z,8.15
2022-10-08T16:17:10.807Z,9.73
2022-10-08T16:19:40.690Z,10.05
2022-10-08T16:22:09.095Z,10.18
2022-10-08T16:24:37.493Z,9.45
2022-10-08T16:27:05.954Z,11.20
2022-10-08T16:29:34.429Z,9.23
2022-10-08T16:32:03.044Z,9.38
2022-10-08T16:34:31.990Z,9.07
2022-10-08T16:37:02.158Z,10.45
2022-10-08T16:39:30.615Z,9.75
2022-10-08T16:41:59.057Z,11.90
2022-10-08T16:44:27.458Z,12.95
2022-10-08T16:46:55.843Z,12.55
2022-10-08T16:49:26.633Z,10.45
2022-10-08T16:51:58.061Z,9.57
2022-10-08T16:54:29.377Z,9.48
2022-10-08T16:56:58.335Z,9.43
2022-10-08T16:59:29.619Z,10.88
2022-10-08T17:02:00.390Z,11.25
2022-10-08T17:04:35.007Z,12.77
2022-10-08T17:07:03.400Z,11.52
2022-10-08T17:09:34.009Z,10.63
2022-10-08T17:12:02.630Z,12.40
2022-10-08T17:14:33.355Z,9.40
2022-10-08T17:17:01.887Z,11.50
2022-10-08T17:19:30.499Z,12.32
2022-10-08T17:21:59.188Z,10.95
2022-10-08T17:24:28.235Z,10.38
2022-10-08T17:26:58.256Z,9.65
2022-10-08T17:29:27.376Z,8.77
2022-10-08T17:31:56.265Z,12.88
2022-10-08T17:34:25.125Z,10.95
2022-10-08T17:36:53.900Z,10.15
2022-10-08T17:39:23.010Z,10.30
2022-10-08T17:41:52.022Z,11.57
2022-10-08T17:44:22.978Z,11.45
2022-10-08T17:46:53.515Z,11.57
2022-10-08T17:49:22.432Z,7.28
2022-10-08T17:51:51.764Z,7.60
2022-10-08T17:54:22.515Z,6.97
2022-10-08T17:56:52.074Z,7.18
2022-10-08T17:59:24.239Z,6.82
2022-10-08T18:01:53.723Z,6.03
2022-10-08T18:04:23.144Z,7.22
2022-10-08T18:06:52.861Z,5.22
2022-10-08T18:09:23.700Z,5.57
2022-10-08T18:11:54.215Z,6.00
2022-10-08T18:14:25.273Z,5.32
2022-10-08T18:16:54.189Z,4.50
2022-10-08T18:19:24.564Z,4.13
2022-10-08T18:21:53.426Z,4.35
2022-10-08T18:24:22.639Z,4.72
2022-10-08T18:26:51.842Z,4.85
2022-10-08T18:29:20.874Z,5.60
2022-10-08T18:31:51.594Z,5.70
2022-10-08T18:34:20.751Z,6.47
2022-10-08T18:36:49.661Z,6.45
2022-10-08T18:39:23.690Z,8.15
2022-10-08T18:41:57.151Z,6.32
2022-10-08T18:44:32.617Z,7.60
2022-10-08T18:47:05.402Z,6.68
2022-10-08T18:49:35.324Z,6.50
2022-10-08T18:52:05.005Z,6.82
2022-10-08T18:54:36.458Z,6.13
2022-10-08T18:57:08.731Z,6.50
2022-10-08T18:59:37.328Z,5.47
2022-10-08T19:02:07.411Z,6.40
2022-10-08T19:04:37.732Z,5.00
2022-10-08T19:07:06.524Z,5.70
2022-10-08T19:09:35.569Z,7.85
2022-10-08T19:12:04.412Z,7.88
2022-10-08T19:14:33.867Z,6.82
2022-10-08T19:17:03.273Z,6.95
2022-10-08T19:19:33.469Z,6.13
2022-10-08T19:22:03.694Z,6.93
2022-10-08T19:24:34.145Z,7.43
2022-10-08T19:27:04.397Z,7.38
2022-10-08T19:29:36.317Z,7.15
2022-10-08T19:32:06.792Z,7.60
2022-10-08T19:34:39.739Z,6.05
2022-10-08T19:37:11.069Z,6.10
2022-10-08T19:39:43.914Z,6.97
2022-10-08T19:42:13.762Z,7.30
2022-10-08T19:44:42.856Z,7.20
2022-10-08T19:47:13.211Z,6.32
2022-10-08T19:49:44.275Z,6.55
2022-10-08T19:52:14.448Z,6.70
2022-10-08T19:54:44.994Z,5.72
2022-10-08T19:57:13.984Z,5.72
2022-10-08T19:59:43.093Z,8.63
2022-10-08T20:02:12.058Z,6.70
2022-10-08T20:04:42.379Z,6.88
2022-10-08T20:07:10.896Z,7.32
2022-10-08T20:09:39.531Z,7.03
2022-10-08T20:12:09.247Z,7.15
2022-10-08T20:14:37.760Z,7.40
2022-10-08T20:17:06.319Z,7.43
2022-10-08T20:19:34.746Z,7.82
2022-10-08T20:22:09.637Z,6.78
2022-10-08T20:24:40.014Z,5.55
2022-10-08T20:27:08.466Z,5.80
2022-10-08T20:29:36.927Z,5.85
2022-10-08T20:32:05.362Z,5.43
2022-10-08T20:34:33.733Z,5.53
2022-10-08T20:37:02.582Z,6.22
2022-10-08T20:39:32.405Z,5.47
2022-10-08T20:42:00.843Z,5.70
2022-10-08T20:44:29.328Z,5.57
2022-10-08T20:47:00.379Z,5.28
2022-10-08T20:49:30.722Z,5.50
2022-10-08T20:51:59.119Z,5.82
2022-10-08T20:54:27.883Z,5.57
2022-10-08T20:56:57.725Z,4.90
2022-10-08T20:59:26.719Z,4.75
2022-10-08T21:01:55.208Z,4.68
2022-10-08T21:04:23.654Z,4.78
2022-10-08T21:06:52.754Z,4.05
2022-10-08T21:09:22.868Z,3.80
2022-10-08T21:11:51.338Z,5.32
2022-10-08T21:14:23.797Z,4.03
2022-10-08T21:16:53.612Z,3.83
2022-10-08T21:19:23.359Z,4.20
2022-10-08T21:21:52.346Z,5.00
2022-10-08T21:24:21.046Z,3.85
2022-10-08T21:26:49.480Z,5.22
2022-10-08T21:29:17.884Z,4.68
2022-10-08T21:31:47.810Z,4.53
2022-10-08T21:34:16.618Z,3.92
2022-10-08T21:36:44.995Z,4.47
2022-10-08T21:39:18.327Z,4.72
2022-10-08T21:41:47.653Z,3.78
2022-10-08T21:44:16.282Z,4.80
2022-10-08T21:46:45.513Z,3.95
2022-10-08T21:49:17.596Z,4.07
2022-10-08T21:51:46.277Z,3.58
2022-10-08T21:54:16.582Z,3.83
2022-10-08T21:56:45.566Z,3.90
2022-10-08T21:59:16.644Z,4.18
2022-10-08T22:01:46.950Z,3.97
2022-10-08T22:04:19.430Z,3.22
2022-10-08T22:06:50.372Z,5.40
2022-10-08T22:09:22.041Z,5.35
2022-10-08T22:11:51.280Z,3.70
2022-10-08T22:14:20.383Z,4.22
2022-10-08T22:16:49.294Z,4.03
2022-10-08T22:19:19.428Z,3.80
2022-10-08T22:21:48.087Z,3.50
2022-10-08T22:24:16.693Z,3.92
2022-10-08T22:26:47.716Z,3.00
2022-10-08T22:29:16.809Z,4.18
2022-10-08T22:31:45.853Z,4.55
2022-10-08T22:34:14.431Z,4.10
2022-10-08T22:36:45.615Z,3.70
2022-10-08T22:39:14.269Z,4.07
2022-10-08T22:41:42.783Z,4.15
2022-10-08T22:44:11.272Z,4.10
2022-10-08T22:46:40.768Z,3.80
2022-10-08T22:49:12.266Z,4.30
2022-10-08T22:51:40.977Z,3.63
2022-10-08T22:54:11.198Z,4.15
2022-10-08T22:56:39.853Z,3.42
2022-10-08T22:59:08.726Z,4.15
2022-10-08T23:01:37.428Z,4.07
2022-10-08T23:04:05.893Z,4.57
2022-10-08T23:06:35.965Z,4.43
2022-10-08T23:09:07.897Z,4.00
2022-10-08T23:11:37.688Z,3.92
2022-10-08T23:14:07.120Z,3.75
2022-10-08T23:16:36.096Z,3.30
2022-10-08T23:19:07.275Z,3.40
2022-10-08T23:21:36.428Z,4.18
2022-10-08T23:24:05.529Z,3.40
2022-10-08T23:26:34.034Z,4.00
2022-10-08T23:29:05.306Z,3.92
2022-10-08T23:31:36.818Z,3.95
2022-10-08T23:34:06.649Z,4.05
2022-10-08T23:36:37.232Z,4.32
2022-10-08T23:39:06.486Z,3.35
2022-10-08T23:41:35.180Z,3.47
2022-10-08T23:44:05.557Z,4.55
2022-10-08T23:46:34.105Z,3.53
2022-10-08T23:49:02.624Z,3.55
2022-10-08T23:51:32.307Z,3.78
2022-10-08T23:54:02.175Z,3.72
2022-10-08T23:56:30.940Z,3.85
2022-10-08T23:58:59.959Z,4.30
